Time;durP1;ratioP1;P1;durP2;ratioP2;P2;SDS_P1;SDS_P2;PMS_P1;PMS_P2;Temp;Humidity;BMP_temperature;BMP_pressure;BME280_temperature;BME280_humidity;BME280_pressure;Samples;Min_cycle;Max_cycle;Signal;HPM_P1;HPM_P2
2023/11/11 00:01:15;;;;;;;;;1.67;1.67;;;;;22.45;43.19;100515.00;4939084;28;46075;-82
2023/11/11 00:03:42;;;;;;;;;2.00;1.67;;;;;22.48;43.16;100519.94;4938889;28;45481;-83
2023/11/11 00:06:08;;;;;;;;;2.67;1.00;;;;;22.45;43.35;100520.31;4940004;28;45416;-81
2023/11/11 00:08:37;;;;;;;;;2.00;1.33;;;;;22.49;43.34;100521.56;4939198;28;45555;-81
2023/11/11 00:11:28;;;;;;;;;2.00;1.00;;;;;22.48;42.95;100519.94;4937634;28;46185;-83
2023/11/11 00:13:56;;;;;;;;;2.00;2.00;;;;;22.46;43.51;100512.16;4953089;28;45306;-82
2023/11/11 00:16:21;;;;;;;;;1.33;1.33;;;;;22.45;43.37;100515.00;4939018;28;45378;-78
2023/11/11 00:18:48;;;;;;;;;4.33;2.00;;;;;22.42;43.40;100504.78;4937560;28;45389;-82
2023/11/11 00:21:14;;;;;;;;;2.00;2.00;;;;;22.54;42.98;100528.94;4938781;28;46640;-81
2023/11/11 00:23:39;;;;;;;;;4.00;4.00;;;;;22.54;43.44;100528.94;4938846;28;45363;-80
2023/11/11 00:26:05;;;;;;;;;5.33;3.00;;;;;22.44;43.18;100516.00;4937831;28;45462;-80
2023/11/11 00:28:30;;;;;;;;;3.00;3.00;;;;;22.50;43.26;100516.09;4939076;28;45270;-79
2023/11/11 00:30:55;;;;;;;;;2.00;2.00;;;;;22.50;43.26;100518.72;4938688;28;45441;-78
2023/11/11 00:33:22;;;;;;;;;3.67;3.67;;;;;22.52;42.70;100522.00;4953684;28;45363;-79
2023/11/11 00:35:47;;;;;;;;;5.33;4.33;;;;;22.51;43.13;100519.53;4953764;28;45517;-79
2023/11/11 00:38:12;;;;;;;;;4.00;2.00;;;;;22.45;43.12;100510.53;4938795;28;45442;-80
2023/11/11 00:40:39;;;;;;;;;3.00;3.00;;;;;22.51;42.98;100528.31;4937603;28;45681;-80
2023/11/11 00:43:05;;;;;;;;;3.00;3.00;;;;;22.47;43.33;100526.25;4938561;28;45282;-79
2023/11/11 00:45:30;;;;;;;;;3.33;2.00;;;;;22.45;42.74;100526.44;4936861;28;45363;-79
2023/11/11 00:47:56;;;;;;;;;2.33;2.33;;;;;22.43;43.02;100525.78;4938401;28;45366;-80
2023/11/11 00:50:21;;;;;;;;;4.33;2.00;;;;;22.44;43.07;100527.44;4937254;28;47052;-79
2023/11/11 00:52:46;;;;;;;;;2.00;2.00;;;;;22.43;42.98;100528.44;4937217;28;45358;-79
2023/11/11 00:55:11;;;;;;;;;3.33;2.67;;;;;22.42;42.75;100526.81;4938800;28;45355;-80
2023/11/11 00:57:39;;;;;;;;;3.00;2.00;;;;;22.39;43.16;100516.59;4938165;28;45276;-80
2023/11/11 01:00:10;;;;;;;;;3.67;3.00;;;;;22.41;43.00;100527.81;4938416;28;46518;-80
2023/11/11 01:02:35;;;;;;;;;2.67;2.33;;;;;22.35;43.12;100515.34;4937209;28;45326;-79
2023/11/11 01:05:00;;;;;;;;;2.00;2.00;;;;;22.34;43.18;100519.00;4952998;28;45635;-80
2023/11/11 01:07:26;;;;;;;;;4.33;3.00;;;;;22.41;42.77;100527.81;4952903;28;45545;-79
2023/11/11 01:09:53;;;;;;;;;3.00;2.00;;;;;22.42;43.07;100526.81;4937168;28;47852;-79
2023/11/11 01:12:19;;;;;;;;;2.00;2.00;;;;;22.36;42.94;100524.91;4953061;28;45278;-80
2023/11/11 01:14:45;;;;;;;;;2.00;2.00;;;;;22.37;42.78;100527.38;4939516;28;45401;-79
2023/11/11 01:17:10;;;;;;;;;2.33;2.00;;;;;22.39;42.81;100533.31;4953615;28;45346;-79
2023/11/11 01:19:36;;;;;;;;;2.67;2.67;;;;;22.37;42.94;100534.53;4938056;28;46205;-79
2023/11/11 01:22:02;;;;;;;;;3.00;3.00;;;;;22.32;42.81;100524.50;4952961;28;45493;-79
2023/11/11 01:24:27;;;;;;;;;2.33;2.00;;;;;22.32;43.17;100516.53;4936965;28;45450;-80
2023/11/11 01:26:52;;;;;;;;;3.00;2.00;;;;;22.32;42.52;100524.50;4937704;28;45345;-79
2023/11/11 01:29:18;;;;;;;;;2.67;2.00;;;;;22.38;43.03;100538.78;4938346;28;46607;-79
2023/11/11 01:31:43;;;;;;;;;2.00;2.00;;;;;22.31;42.74;100525.50;4937423;28;45350;-79
2023/11/11 01:34:08;;;;;;;;;1.00;1.00;;;;;22.34;42.93;100533.06;4937670;28;45491;-79
2023/11/11 01:36:34;;;;;;;;;3.00;3.00;;;;;22.37;43.01;100542.47;4938063;28;45287;-79
2023/11/11 01:38:59;;;;;;;;;3.33;3.33;;;;;22.33;43.24;100533.28;4936123;28;47459;-79
2023/11/11 01:41:24;;;;;;;;;4.00;1.00;;;;;22.37;42.52;100532.69;4952478;28;45339;-79
2023/11/11 01:43:53;;;;;;;;;3.00;2.00;;;;;22.33;42.68;100543.88;4937528;28;45360;-79
2023/11/11 01:46:18;;;;;;;;;1.00;1.00;;;;;22.34;42.75;100543.66;4936710;28;45752;-79
2023/11/11 01:48:44;;;;;;;;;3.00;3.00;;;;;22.32;42.65;100561.59;4937536;28;45655;-79
2023/11/11 01:51:10;;;;;;;;;2.00;2.00;;;;;22.30;42.98;100553.03;4936771;28;45464;-79
2023/11/11 01:53:38;;;;;;;;;2.00;2.00;;;;;22.36;42.88;100576.09;4952758;28;45428;-79
2023/11/11 01:56:05;;;;;;;;;2.67;1.00;;;;;22.25;42.69;100581.91;4937449;28;45290;-79
2023/11/11 01:58:31;;;;;;;;;3.67;3.00;;;;;22.28;42.54;100571.75;4936960;28;46646;-79
2023/11/11 02:00:58;;;;;;;;;2.00;2.00;;;;;22.30;42.68;100566.28;4937577;28;45379;-80
2023/11/11 02:03:24;;;;;;;;;2.33;2.33;;;;;22.31;42.41;100567.91;4952293;28;45459;-79
2023/11/11 02:05:53;;;;;;;;;4.67;3.00;;;;;22.29;42.51;100556.66;4952213;28;45378;-79
2023/11/11 02:08:19;;;;;;;;;3.00;3.00;;;;;22.25;42.52;100544.81;4937803;28;47529;-79
2023/11/11 02:10:45;;;;;;;;;4.33;4.00;;;;;22.32;42.46;100551.00;4937101;28;45272;-78
2023/11/11 02:13:11;;;;;;;;;3.33;3.00;;;;;22.31;42.96;100559.13;4937267;28;45220;-79
2023/11/11 02:15:36;;;;;;;;;2.00;2.00;;;;;22.21;42.64;100552.31;4936079;28;45593;-79
2023/11/11 02:18:05;;;;;;;;;3.00;3.00;;;;;22.29;42.70;100568.09;4951550;28;47885;-79
2023/11/11 02:20:33;;;;;;;;;0.67;0.67;;;;;22.33;42.94;100583.63;4952262;28;45902;-78
2023/11/11 02:22:59;;;;;;;;;3.67;3.00;;;;;22.26;42.44;100559.69;4936412;28;45465;-79
2023/11/11 02:25:25;;;;;;;;;3.00;3.00;;;;;22.26;42.44;100571.13;4952443;28;45255;-79
2023/11/11 02:27:50;;;;;;;;;2.00;2.00;;;;;22.20;42.53;100550.66;4937116;28;47185;-79
2023/11/11 02:30:16;;;;;;;;;4.33;2.00;;;;;22.27;42.62;100553.38;4937140;28;45292;-79
2023/11/11 02:32:42;;;;;;;;;3.00;3.00;;;;;22.22;42.86;100539.88;4952184;28;45255;-79
2023/11/11 02:35:08;;;;;;;;;2.00;2.00;;;;;22.22;42.40;100537.22;4937126;28;45569;-79
2023/11/11 02:37:33;;;;;;;;;2.33;2.00;;;;;22.29;42.88;100554.00;4935672;28;48325;-79
2023/11/11 02:39:59;;;;;;;;;2.00;2.00;;;;;22.26;42.58;100562.34;4951555;28;45845;-80
2023/11/11 02:42:24;;;;;;;;;2.00;2.00;;;;;22.28;42.48;100558.50;4937135;28;45438;-79
2023/11/11 02:44:49;;;;;;;;;2.00;2.00;;;;;22.18;42.44;100540.25;4935461;28;45402;-79
2023/11/11 02:47:15;;;;;;;;;3.00;3.00;;;;;22.27;42.82;100554.22;4935505;28;46481;-79
2023/11/11 02:49:40;;;;;;;;;2.33;2.33;;;;;22.27;42.43;100558.69;4935891;28;45532;-79
2023/11/11 02:52:06;;;;;;;;;3.00;2.00;;;;;22.09;42.82;100538.75;4951614;28;45342;-79
2023/11/11 02:54:31;;;;;;;;;2.00;2.00;;;;;22.23;42.59;100552.09;4936559;28;45276;-78
2023/11/11 02:56:56;;;;;;;;;2.00;2.00;;;;;22.26;42.76;100565.00;4936067;28;47812;-79
2023/11/11 02:59:22;;;;;;;;;1.00;1.00;;;;;22.28;42.85;100565.63;4935747;28;45782;-79
2023/11/11 03:01:47;;;;;;;;;2.00;2.00;;;;;22.30;42.45;100568.91;4952139;28;45314;-79
2023/11/11 03:04:12;;;;;;;;;2.33;2.33;;;;;22.22;42.88;100569.03;4935734;28;45670;-79
2023/11/11 03:06:42;;;;;;;;;4.00;3.00;;;;;22.29;42.47;100573.41;4951834;28;47335;-79
2023/11/11 03:09:08;;;;;;;;;4.00;3.67;;;;;22.22;42.70;100550.50;4939056;28;45402;-79
2023/11/11 03:11:34;;;;;;;;;2.00;2.00;;;;;22.27;42.98;100556.03;4939971;28;45513;-79
2023/11/11 03:14:01;;;;;;;;;3.00;1.67;;;;;22.29;43.06;100573.41;4954529;28;45362;-79
2023/11/11 03:16:39;;;;;;;;;4.00;3.00;;;;;22.26;42.53;100568.47;4940398;28;45305;-79
2023/11/11 03:19:05;;;;;;;;;3.00;2.00;;;;;22.26;42.71;100559.69;4939716;28;45381;-79
2023/11/11 03:21:33;;;;;;;;;3.00;3.00;;;;;22.28;42.47;100570.91;4939365;28;45386;-79
2023/11/11 03:23:59;;;;;;;;;2.33;2.33;;;;;22.25;42.56;100569.47;4939605;28;45408;-79
2023/11/11 03:26:25;;;;;;;;;3.00;3.00;;;;;22.21;42.29;100572.69;4954543;28;46262;-79
2023/11/11 03:28:51;;;;;;;;;2.00;1.00;;;;;22.28;42.47;100585.00;4954315;28;45732;-79
2023/11/11 03:31:19;;;;;;;;;3.00;3.00;;;;;22.21;42.26;100575.34;4938810;28;45314;-78
2023/11/11 03:33:47;;;;;;;;;1.67;1.67;;;;;22.27;42.10;100595.78;4939894;28;45430;-78
2023/11/11 03:36:13;;;;;;;;;4.00;2.33;;;;;22.27;42.08;100585.19;4939192;28;46488;-79
2023/11/11 03:38:38;;;;;;;;;4.67;2.33;;;;;22.24;42.27;100594.34;4954689;28;45370;-78
2023/11/11 03:41:04;;;;;;;;;3.00;2.33;;;;;22.27;42.00;100593.16;4939464;28;45462;-79
2023/11/11 03:43:30;;;;;;;;;4.00;3.00;;;;;22.25;42.76;100595.16;4938252;28;45346;-78
2023/11/11 03:45:56;;;;;;;;;2.00;2.00;;;;;22.29;42.47;100604.38;4938234;28;47188;-79
2023/11/11 03:48:21;;;;;;;;;2.67;2.67;;;;;22.27;42.18;100619.66;4937922;28;45308;-79
2023/11/11 03:50:46;;;;;;;;;1.67;1.67;;;;;22.29;42.50;100622.91;4939792;28;45574;-79
2023/11/11 03:53:12;;;;;;;;;4.00;3.00;;;;;22.29;42.65;100612.31;4938766;28;45711;-79
2023/11/11 03:55:37;;;;;;;;;2.00;2.00;;;;;22.29;42.28;100605.19;4938092;28;47724;-78
2023/11/11 03:58:02;;;;;;;;;2.00;2.00;;;;;22.29;42.19;100607.03;4939047;28;45533;-79
2023/11/11 04:00:28;;;;;;;;;1.00;1.00;;;;;22.28;42.73;100595.59;4938227;28;45297;-79
2023/11/11 04:02:54;;;;;;;;;2.00;2.00;;;;;22.29;42.65;100604.38;4939285;28;45316;-79
2023/11/11 04:05:20;;;;;;;;;4.33;2.00;;;;;22.21;42.63;100580.63;4938870;28;47444;-79
2023/11/11 04:07:47;;;;;;;;;5.00;3.00;;;;;22.27;42.39;100593.16;4939436;28;45382;-79
2023/11/11 04:10:13;;;;;;;;;1.33;1.33;;;;;22.24;42.34;100589.03;4939302;28;45386;-79
2023/11/11 04:12:39;;;;;;;;;3.67;3.67;;;;;22.25;42.18;100595.16;4939144;28;45575;-79
2023/11/11 04:15:05;;;;;;;;;4.00;2.33;;;;;22.21;42.56;100586.75;4954003;28;47229;-79
2023/11/11 04:17:31;;;;;;;;;1.00;1.00;;;;;22.17;42.46;100580.19;4939013;28;45291;-79
2023/11/11 04:19:56;;;;;;;;;4.00;3.00;;;;;22.24;42.92;100588.22;4937662;28;45394;-79
2023/11/11 04:22:22;;;;;;;;;4.00;2.00;;;;;22.18;42.13;100585.31;4937795;28;45355;-79
2023/11/11 04:24:48;;;;;;;;;4.00;2.33;;;;;22.17;42.42;100583.66;4938625;28;46541;-79
2023/11/11 04:27:13;;;;;;;;;2.67;2.67;;;;;22.21;42.47;100592.06;4938924;28;45794;-78
2023/11/11 04:29:40;;;;;;;;;3.00;3.00;;;;;22.19;42.63;100588.78;4937673;28;45411;-79
2023/11/11 04:32:07;;;;;;;;;2.67;2.67;;;;;22.19;42.57;100580.84;4938927;28;45443;-79
2023/11/11 04:34:33;;;;;;;;;2.67;2.33;;;;;22.25;42.52;100588.00;4938297;28;46648;-79
2023/11/11 04:36:59;;;;;;;;;3.00;3.00;;;;;22.25;42.69;100590.66;4938661;28;45308;-79
2023/11/11 04:39:25;;;;;;;;;4.00;3.00;;;;;22.23;42.51;100589.22;4938724;28;45410;-79
2023/11/11 04:41:51;;;;;;;;;5.67;3.33;;;;;22.24;42.11;100585.56;4938860;28;45391;-79
2023/11/11 04:44:16;;;;;;;;;2.00;2.00;;;;;22.25;42.40;100588.00;4937153;28;46591;-78
2023/11/11 04:46:41;;;;;;;;;2.00;2.00;;;;;22.22;42.26;100582.28;4938283;28;45382;-79
2023/11/11 04:49:07;;;;;;;;;3.00;3.00;;;;;22.20;42.34;100585.09;4938191;28;45361;-78
2023/11/11 04:51:33;;;;;;;;;3.00;3.00;;;;;22.22;41.92;100588.41;4937544;28;45596;-78
2023/11/11 04:53:58;;;;;;;;;3.33;3.33;;;;;22.17;42.22;100591.59;4938255;28;45490;-78
2023/11/11 04:56:23;;;;;;;;;3.67;2.33;;;;;22.21;42.47;100589.41;4938585;28;45299;-79
2023/11/11 04:58:49;;;;;;;;;4.00;2.67;;;;;22.13;42.47;100581.56;4953710;28;45560;-79
2023/11/11 05:01:15;;;;;;;;;3.00;2.00;;;;;22.16;42.21;100587.31;4938851;28;45371;-78
2023/11/11 05:03:41;;;;;;;;;3.00;3.00;;;;;22.16;42.23;100589.97;4938465;28;45339;-79
2023/11/11 05:06:07;;;;;;;;;4.00;2.00;;;;;22.24;42.51;100599.63;4953568;28;45266;-78
2023/11/11 05:08:32;;;;;;;;;3.67;3.00;;;;;22.25;42.46;100603.91;4938306;28;45359;-78
2023/11/11 05:10:58;;;;;;;;;3.00;3.00;;;;;22.16;42.47;100591.78;4937385;28;45589;-79
2023/11/11 05:13:24;;;;;;;;;2.00;2.00;;;;;22.26;42.54;100615.34;4936626;28;46606;-79
2023/11/11 05:15:59;;;;;;;;;5.00;3.00;;;;;22.20;42.08;100616.09;4938281;28;45437;-78
2023/11/11 05:18:26;;;;;;;;;5.33;3.33;;;;;22.23;42.45;100643.03;4953107;28;45434;-79
2023/11/11 05:20:51;;;;;;;;;4.67;2.00;;;;;22.22;42.33;100653.84;4938333;28;45424;-78
2023/11/11 05:23:17;;;;;;;;;4.00;3.67;;;;;22.23;42.44;100660.75;4937778;28;46592;-79
2023/11/11 05:25:42;;;;;;;;;5.00;3.00;;;;;22.21;42.24;100665.44;4952610;28;45355;-78
2023/11/11 05:28:08;;;;;;;;;3.67;3.33;;;;;22.21;42.45;100660.13;4952790;28;45306;-78
2023/11/11 05:30:33;;;;;;;;;2.33;2.33;;;;;22.20;42.23;100658.50;4938117;28;45576;-79
2023/11/11 05:32:59;;;;;;;;;2.33;2.33;;;;;22.16;42.57;100661.53;4937550;28;46587;-78
2023/11/11 05:35:24;;;;;;;;;3.00;3.00;;;;;22.22;42.42;100675.88;4938422;28;45370;-79
2023/11/11 05:37:49;;;;;;;;;3.67;2.00;;;;;22.24;42.43;100673.84;4953100;28;45313;-79
2023/11/11 05:40:21;;;;;;;;;2.33;2.33;;;;;22.14;42.56;100646.81;4937663;28;45694;-79
2023/11/11 05:42:47;;;;;;;;;2.67;2.67;;;;;22.23;42.19;100674.84;4937656;28;47369;-79
2023/11/11 05:45:16;;;;;;;;;1.00;1.00;;;;;22.21;42.58;100673.38;4937663;28;45859;-78
2023/11/11 05:47:43;;;;;;;;;4.67;3.00;;;;;22.21;42.39;100676.84;4937611;28;45369;-78
2023/11/11 05:50:09;;;;;;;;;4.00;4.00;;;;;22.23;42.51;100680.13;4938207;28;45265;-79
2023/11/11 05:52:34;;;;;;;;;1.00;1.00;;;;;22.18;42.42;100667.44;4937841;28;46244;-78
2023/11/11 05:55:00;;;;;;;;;2.00;2.00;;;;;22.24;42.26;100671.19;4936397;28;45366;-78
2023/11/11 05:57:25;;;;;;;;;2.00;2.00;;;;;22.21;42.47;100674.22;4937486;28;45650;-79
2023/11/11 05:59:50;;;;;;;;;2.67;2.67;;;;;22.15;42.45;100653.75;4937764;28;45501;-79
2023/11/11 06:02:15;;;;;;;;;3.33;3.00;;;;;22.17;42.33;100662.34;4937152;28;47017;-78
2023/11/11 06:04:41;;;;;;;;;3.00;2.00;;;;;22.23;42.24;100671.34;4936263;28;45842;-79
2023/11/11 06:07:07;;;;;;;;;2.67;2.00;;;;;22.17;42.29;100665.78;4952594;28;45260;-78
2023/11/11 06:09:34;;;;;;;;;2.67;2.67;;;;;22.20;42.22;100680.50;4936497;28;45364;-79
2023/11/11 06:12:00;;;;;;;;;3.00;3.00;;;;;22.16;42.57;100677.41;4937236;28;46389;-79
2023/11/11 06:14:26;;;;;;;;;3.00;2.33;;;;;22.21;42.28;100676.03;4937289;28;45293;-79
2023/11/11 06:16:52;;;;;;;;;1.67;1.67;;;;;22.15;42.22;100662.50;4937691;28;45319;-79
2023/11/11 06:19:19;;;;;;;;;2.67;2.67;;;;;22.24;42.51;100686.25;4937434;28;45333;-79
2023/11/11 06:21:45;;;;;;;;;3.33;3.00;;;;;22.15;42.28;100672.28;4937264;28;46719;-79
2023/11/11 06:24:12;;;;;;;;;2.00;2.00;;;;;22.20;42.38;100677.06;4937172;28;45949;-78
2023/11/11 06:26:38;;;;;;;;;3.00;3.00;;;;;22.18;42.66;100683.34;4937530;28;45341;-78
2023/11/11 06:29:06;;;;;;;;;2.67;2.67;;;;;22.20;42.27;100696.41;4937518;28;45639;-79
2023/11/11 06:31:32;;;;;;;;;1.33;1.33;;;;;22.23;42.17;100696.03;4937235;28;46562;-79
2023/11/11 06:33:58;;;;;;;;;3.00;3.00;;;;;22.15;42.40;100686.38;4937093;28;45371;-79
2023/11/11 06:36:24;;;;;;;;;2.00;2.00;;;;;22.20;42.53;100696.41;4936129;28;45540;-78
2023/11/11 06:38:49;;;;;;;;;1.33;1.33;;;;;22.15;42.37;100696.97;4937182;28;45338;-78
2023/11/11 06:41:17;;;;;;;;;2.00;2.00;;;;;22.13;42.19;100701.63;4932536;28;47965;-78
2023/11/11 06:43:42;;;;;;;;;1.00;1.00;;;;;22.21;42.16;100702.53;4920670;28;45287;-78
2023/11/11 06:46:08;;;;;;;;;3.00;3.00;;;;;22.15;42.36;100688.19;4920944;28;45379;-78
2023/11/11 06:48:33;;;;;;;;;2.00;2.00;;;;;22.15;42.15;100683.72;4921869;28;45406;-79
2023/11/11 06:50:59;;;;;;;;;2.33;1.67;;;;;22.18;42.11;100685.16;4921490;28;45477;-79
2023/11/11 06:53:25;;;;;;;;;1.33;1.33;;;;;22.20;42.22;100698.25;4921384;28;45260;-78
2023/11/11 06:55:50;;;;;;;;;2.00;2.00;;;;;22.23;41.92;100713.75;4921506;28;45244;-78
2023/11/11 06:58:16;;;;;;;;;2.67;2.00;;;;;22.15;42.31;100699.63;4936716;28;45694;-79
2023/11/11 07:00:41;;;;;;;;;2.00;2.00;;;;;22.20;41.92;100706.19;4955038;28;48315;-78
2023/11/11 07:03:08;;;;;;;;;4.00;4.00;;;;;22.22;41.98;100715.63;4955132;28;45418;-78
2023/11/11 07:05:35;;;;;;;;;1.67;1.67;;;;;22.18;42.42;100707.19;4940409;28;45424;-79
2023/11/11 07:08:02;;;;;;;;;2.00;2.00;;;;;22.21;42.25;100713.13;4940508;28;45378;-79
2023/11/11 07:10:30;;;;;;;;;3.00;3.00;;;;;22.21;41.98;100715.78;4940096;28;47153;-80
2023/11/11 07:12:56;;;;;;;;;1.33;1.33;;;;;22.15;42.30;100710.22;4954323;28;45268;-80
2023/11/11 07:15:21;;;;;;;;;2.33;2.33;;;;;22.14;42.60;100703.28;4954480;28;45312;-79
2023/11/11 07:17:46;;;;;;;;;4.00;3.00;;;;;22.18;42.34;100711.66;4940141;28;45393;-79
2023/11/11 07:20:12;;;;;;;;;3.00;2.33;;;;;22.17;42.46;100705.53;4954757;28;46991;-79
2023/11/11 07:22:38;;;;;;;;;2.00;2.00;;;;;22.11;42.27;100695.69;4939981;28;45400;-78
2023/11/11 07:25:05;;;;;;;;;2.00;2.00;;;;;22.16;42.40;100709.22;4940137;28;45443;-78
2023/11/11 07:27:35;;;;;;;;;1.67;1.67;;;;;22.22;42.13;100714.78;4939681;28;45513;-78
2023/11/11 07:30:04;;;;;;;;;2.00;2.00;;;;;22.15;42.60;100707.56;4939212;28;46651;-79
2023/11/11 07:32:29;;;;;;;;;2.67;2.67;;;;;22.15;42.41;100712.03;4941142;28;45342;-78
2023/11/11 07:34:54;;;;;;;;;1.00;1.00;;;;;22.20;42.07;100722.09;4939942;28;45485;-78
2023/11/11 07:37:21;;;;;;;;;1.00;1.00;;;;;22.15;42.13;100715.50;4939879;28;45501;-79
2023/11/11 07:39:46;;;;;;;;;3.00;3.00;;;;;22.11;42.58;100718.72;4939544;28;45615;-79
2023/11/11 07:42:11;;;;;;;;;3.00;3.00;;;;;22.13;42.11;100722.81;4938420;28;45519;-78
2023/11/11 07:44:37;;;;;;;;;0.00;0.00;;;;;22.13;42.41;100716.69;4939592;28;45630;-78
2023/11/11 07:47:06;;;;;;;;;2.33;2.33;;;;;22.15;42.52;100728.75;4939598;28;45426;-77
2023/11/11 07:49:33;;;;;;;;;5.00;2.67;;;;;22.18;42.39;100746.13;4939271;28;45242;-78
2023/11/11 07:51:58;;;;;;;;;5.00;3.33;;;;;22.12;42.51;100742.38;4939286;28;45296;-78
2023/11/11 07:54:24;;;;;;;;;4.67;3.33;;;;;22.21;42.26;100760.81;4953946;28;45475;-78
2023/11/11 07:56:50;;;;;;;;;2.00;2.00;;;;;22.14;42.11;100756.28;4938868;28;46018;-78
2023/11/11 07:59:57;;;;;;;;;2.00;2.00;;;;;21.72;42.05;100694.94;4939309;28;46490;-79
2023/11/11 08:02:24;;;;;;;;;1.33;1.33;;;;;22.12;41.92;100747.66;4937379;28;45323;-79
2023/11/11 08:04:50;;;;;;;;;1.00;1.00;;;;;22.21;42.43;100763.47;4939394;28;45281;-78
2023/11/11 08:07:18;;;;;;;;;3.00;3.00;;;;;22.16;42.13;100758.72;4939516;28;45485;-78
2023/11/11 08:09:44;;;;;;;;;3.00;2.00;;;;;22.22;41.76;100762.47;4939292;28;46415;-78
2023/11/11 08:12:10;;;;;;;;;2.00;2.00;;;;;22.21;41.93;100769.59;4938556;28;45485;-78
2023/11/11 08:14:36;;;;;;;;;2.00;2.00;;;;;22.18;42.11;100762.00;4939227;28;45482;-78
2023/11/11 08:17:01;;;;;;;;;1.67;1.67;;;;;22.18;42.08;100770.78;4954040;28;45535;-79
2023/11/11 08:19:27;;;;;;;;;2.00;2.00;;;;;22.18;42.26;100772.63;4938873;28;46481;-78
2023/11/11 08:21:53;;;;;;;;;4.33;2.33;;;;;22.22;42.10;100786.34;4939317;28;45319;-78
2023/11/11 08:24:18;;;;;;;;;2.33;2.00;;;;;22.21;42.21;100790.81;4939021;28;45421;-79
2023/11/11 08:26:44;;;;;;;;;2.00;2.00;;;;;22.16;42.35;100794.00;4937400;28;45896;-79
2023/11/11 08:29:09;;;;;;;;;3.00;3.00;;;;;22.23;41.96;100798.56;4938690;28;46757;-78
2023/11/11 08:31:37;;;;;;;;;1.67;1.67;;;;;22.22;42.48;100803.06;4953617;28;45384;-78
2023/11/11 08:34:02;;;;;;;;;3.00;2.00;;;;;22.20;42.30;100786.50;4939487;28;45387;-78
2023/11/11 08:36:28;;;;;;;;;1.33;1.33;;;;;22.18;42.30;100781.41;4938678;28;45296;-78
2023/11/11 08:38:53;;;;;;;;;2.00;2.00;;;;;22.14;42.44;100774.00;4953257;28;48542;-78
2023/11/11 08:41:18;;;;;;;;;3.00;1.00;;;;;22.22;41.98;100778.38;4953557;28;45377;-78
2023/11/11 08:43:44;;;;;;;;;6.33;2.33;;;;;22.22;42.05;100778.38;5041967;23;46108;-78
2023/11/11 08:46:10;;;;;;;;;2.00;2.00;;;;;22.20;42.44;100765.31;4958159;28;45345;-78
2023/11/11 08:48:40;;;;;;;;;2.33;2.33;;;;;22.20;42.10;100754.69;4957635;28;45337;-78
2023/11/11 08:51:11;;;;;;;;;1.67;1.67;;;;;22.15;42.15;100743.84;4957885;28;45528;-78
2023/11/11 08:53:36;;;;;;;;;3.00;3.00;;;;;22.16;42.12;100750.78;4958218;28;45366;-77
2023/11/11 08:56:03;;;;;;;;;1.00;1.00;;;;;22.15;42.46;100747.31;4956114;28;45553;-78
2023/11/11 08:58:29;;;;;;;;;2.67;2.67;;;;;22.23;42.46;100756.16;4957612;28;46514;-78
2023/11/11 09:00:54;;;;;;;;;2.00;2.00;;;;;22.12;42.51;100739.72;4972576;28;45487;-78
2023/11/11 09:03:19;;;;;;;;;2.67;1.00;;;;;22.22;42.41;100762.47;4958037;28;45179;-78
2023/11/11 09:05:45;;;;;;;;;3.00;1.33;;;;;22.13;42.14;100759.94;4956129;28;45306;-79
2023/11/11 09:08:10;;;;;;;;;2.00;2.00;;;;;22.17;42.09;100768.34;4957546;28;45381;-79
2023/11/11 09:10:36;;;;;;;;;3.00;2.00;;;;;22.20;42.09;100770.59;4958731;28;45275;-79
2023/11/11 09:13:03;;;;;;;;;1.67;1.67;;;;;22.17;42.14;100763.03;4958597;28;45362;-79
2023/11/11 09:15:29;;;;;;;;;3.33;3.00;;;;;22.20;42.32;100764.50;4958627;28;45596;-79
2023/11/11 09:17:54;;;;;;;;;2.00;2.00;;;;;22.16;42.19;100761.38;4961864;28;45424;-79
2023/11/11 09:20:21;;;;;;;;;1.00;1.00;;;;;22.23;42.09;100759.63;4975425;28;45289;-78
2023/11/11 09:22:47;;;;;;;;;2.67;2.67;;;;;22.17;42.47;100755.88;4957833;28;45466;-78
2023/11/11 09:25:14;;;;;;;;;1.00;1.00;;;;;22.24;42.18;100771.91;4957284;28;45652;-79
2023/11/11 09:27:41;;;;;;;;;3.00;2.00;;;;;22.22;41.98;100759.84;4957489;28;47532;-79
2023/11/11 09:30:08;;;;;;;;;2.00;2.00;;;;;22.22;42.54;100763.31;4968564;28;45457;-79
2023/11/11 09:32:34;;;;;;;;;2.00;1.67;;;;;22.15;42.52;100759.72;4971107;28;45438;-78
2023/11/11 09:35:00;;;;;;;;;4.00;3.00;;;;;22.24;42.56;100763.94;4977107;28;45486;-78
2023/11/11 09:37:26;;;;;;;;;1.00;1.00;;;;;22.22;42.35;100760.66;4957233;28;47265;-79
2023/11/11 09:39:51;;;;;;;;;1.67;1.67;;;;;22.22;42.16;100765.97;4961757;28;45455;-80
2023/11/11 09:42:17;;;;;;;;;1.00;1.00;;;;;22.21;42.10;100758.19;4975240;28;45918;-79
2023/11/11 09:44:43;;;;;;;;;2.33;2.33;;;;;22.22;42.12;100765.13;4991839;28;45488;-79
2023/11/11 09:47:14;;;;;;;;;2.00;2.00;;;;;22.22;42.25;100765.13;4975368;28;47660;-79
2023/11/11 09:49:40;;;;;;;;;1.00;1.00;;;;;22.17;42.12;100763.84;4978044;28;45416;-79
2023/11/11 09:52:08;;;;;;;;;1.67;1.33;;;;;22.25;42.04;100770.88;4979748;28;45389;-79
2023/11/11 09:54:34;;;;;;;;;1.67;1.67;;;;;22.18;42.49;100762.84;4981120;28;45457;-79
2023/11/11 09:57:01;;;;;;;;;1.67;1.67;;;;;22.16;42.52;100771.97;4969058;28;45468;-80
2023/11/11 09:59:28;;;;;;;;;1.33;0.67;;;;;22.21;42.25;100777.56;4957173;28;45326;-79
2023/11/11 10:01:55;;;;;;;;;2.00;2.00;;;;;22.20;42.58;100773.25;4957020;28;45378;-79
2023/11/11 10:04:20;;;;;;;;;4.00;2.00;;;;;22.22;42.39;100781.03;4971815;28;45691;-79
2023/11/11 10:06:46;;;;;;;;;1.00;1.00;;;;;22.23;42.52;100787.97;4971408;28;47883;-79
2023/11/11 10:09:18;;;;;;;;;4.00;2.00;;;;;22.23;42.42;100785.31;4971311;28;45406;-79
2023/11/11 10:11:45;;;;;;;;;1.33;1.33;;;;;22.25;41.99;100789.44;4956901;28;45332;-79
2023/11/11 10:14:15;;;;;;;;;2.00;1.00;;;;;22.24;42.20;100785.16;4971961;28;45554;-79
2023/11/11 10:16:43;;;;;;;;;1.67;1.67;;;;;22.23;42.01;100785.31;4971257;28;45803;-79
2023/11/11 10:19:14;;;;;;;;;2.00;2.00;;;;;22.23;42.13;100780.00;4957956;28;46411;-80
2023/11/11 10:21:40;;;;;;;;;2.00;2.00;;;;;22.24;41.87;100786.97;4960102;28;45343;-78
2023/11/11 10:24:08;;;;;;;;;1.00;1.00;;;;;22.23;42.67;100783.50;4959491;28;45319;-80
2023/11/11 10:26:34;;;;;;;;;0.67;0.67;;;;;22.27;42.52;100784.78;4958874;28;45514;-80
2023/11/11 10:29:04;;;;;;;;;3.00;3.00;;;;;22.28;42.48;100791.72;4960641;28;45410;-78
2023/11/11 10:31:35;;;;;;;;;2.00;2.00;;;;;22.31;42.34;100792.34;4960159;28;45414;-75
2023/11/11 10:34:00;;;;;;;;;3.33;2.33;;;;;22.21;40.56;100796.09;4959668;28;45505;-81
2023/11/11 10:36:26;;;;;;;;;2.33;2.33;;;;;22.03;41.45;100784.03;4959202;28;45475;-77
2023/11/11 10:38:54;;;;;;;;;2.67;2.67;;;;;22.05;41.85;100792.63;4959650;28;45423;-75
2023/11/11 10:41:20;;;;;;;;;2.00;2.00;;;;;22.00;41.41;100788.88;4977987;28;45440;-84
2023/11/11 10:43:46;;;;;;;;;5.67;2.00;;;;;22.00;41.80;100772.97;4978834;28;45483;-81
2023/11/11 10:46:12;;;;;;;;;1.67;1.67;;;;;22.10;41.24;100788.59;4979054;28;45292;-79
2023/11/11 10:48:39;;;;;;;;;4.00;1.00;;;;;22.10;41.78;100780.66;4977868;28;45621;-78
2023/11/11 10:51:05;;;;;;;;;3.33;3.00;;;;;22.03;42.07;100772.63;4977783;28;45513;-79
2023/11/11 10:53:32;;;;;;;;;4.00;2.33;;;;;22.15;41.83;100791.53;4994318;28;45374;-83
2023/11/11 10:55:58;;;;;;;;;4.33;1.67;;;;;22.18;41.98;100802.59;4994030;28;45615;-78
2023/11/11 10:58:25;;;;;;;;;3.00;2.00;;;;;22.14;41.86;100796.03;4959701;28;45557;-76
2023/11/11 11:00:51;;;;;;;;;5.00;2.00;;;;;22.15;41.74;100789.72;4959244;28;45460;-77
2023/11/11 11:03:19;;;;;;;;;4.67;2.00;;;;;22.23;42.33;100793.25;4974721;28;45555;-77
2023/11/11 11:06:10;;;;;;;;;3.00;2.00;;;;;22.24;42.47;100797.56;4959835;28;46694;-77
2023/11/11 11:09:14;;;;;;;;;1.67;1.67;;;;;22.26;41.68;100795.56;4959856;28;45316;-78
2023/11/11 11:12:03;;;;;;;;;2.00;2.00;;;;;22.26;41.77;100799.03;4974361;28;45259;-78
2023/11/11 11:14:37;;;;;;;;;5.00;3.00;;;;;22.26;42.22;100782.31;4959478;28;45291;-78
2023/11/11 11:17:03;;;;;;;;;1.00;1.00;;;;;22.24;41.83;100779.84;4973814;28;48010;-78
2023/11/11 11:19:29;;;;;;;;;1.00;1.00;;;;;22.25;42.19;100778.81;4959143;28;45483;-77
2023/11/11 11:21:56;;;;;;;;;3.33;2.00;;;;;22.21;41.64;100774.06;4958976;28;45425;-77